Terminal Aerodrome Forecast
Issued by NWS Atlanta, GA

Home | Current Version | Previous Version | Text Only | Print | Product List | Glossary On
Versions: 1 2 3 4 5 6 7 8 9 10 11 12 13 14 15
000
FTUS42 KFFC 290527
TAFMCN
TAF
KMCN 290527Z 2906/3006 00000KT 3SM -RA BR SCT005 OVC012
      TEMPO 2906/2909 2SM -RADZ BR BKN005
     FM290900 34003KT 1/2SM -RADZ FG OVC003
     FM291500 35004KT 4SM -RA BR OVC007
     FM291800 35004KT 6SM BR BKN015
     FM292100 02004KT P6SM BKN025
     FM300300 36002KT 5SM BR BKN007=

USA.gov is the U.S. government's official web portal to all federal, state and local government web resources and services.